Time;durP1;ratioP1;P1;durP2;ratioP2;P2;SDS_P1;SDS_P2;PMS_P1;PMS_P2;Temp;Humidity;BMP_temperature;BMP_pressure;BME280_temperature;BME280_humidity;BME280_pressure;Samples;Min_cycle;Max_cycle;Signal;HPM_P1;HPM_P2
2023/10/29 00:02:06;;;;;;;3.85;1.40;;;11.70;88.30;;;;;;5049332;28;20060;-85
2023/10/29 00:04:35;;;;;;;3.23;1.30;;;11.70;88.50;;;;;;5016648;28;20045;-85
2023/10/29 00:07:03;;;;;;;3.72;1.50;;;11.70;88.50;;;;;;5033065;28;20797;-85
2023/10/29 00:09:29;;;;;;;5.20;1.50;;;11.70;88.60;;;;;;5049519;28;20460;-85
2023/10/29 00:11:57;;;;;;;4.43;1.50;;;11.70;88.80;;;;;;5049198;28;20156;-85
2023/10/29 00:14:25;;;;;;;5.07;1.35;;;11.70;88.90;;;;;;5016106;28;20045;-86
2023/10/29 00:16:52;;;;;;;4.10;1.57;;;11.70;88.80;;;;;;5032267;28;20063;-86
2023/10/29 00:19:20;;;;;;;3.85;1.60;;;11.70;89.00;;;;;;5015671;28;20769;-85
2023/10/29 00:21:47;;;;;;;3.85;1.48;;;11.70;88.90;;;;;;5032696;28;20057;-85
2023/10/29 00:24:14;;;;;;;3.92;1.60;;;11.70;88.90;;;;;;5032658;28;20080;-85
2023/10/29 00:26:41;;;;;;;4.43;1.60;;;11.70;89.00;;;;;;5015538;28;20491;-86
2023/10/29 00:29:08;;;;;;;3.93;1.43;;;11.70;89.10;;;;;;5015903;28;20611;-85
2023/10/29 00:31:37;;;;;;;4.15;1.52;;;11.80;89.20;;;;;;5032606;28;20250;-85
2023/10/29 00:34:04;;;;;;;3.72;1.50;;;11.80;89.20;;;;;;5032244;28;20049;-85
2023/10/29 00:36:31;;;;;;;3.28;1.40;;;11.80;89.30;;;;;;5015402;28;20492;-84
2023/10/29 00:38:58;;;;;;;4.05;1.75;;;11.80;89.30;;;;;;5031951;28;20399;-85
2023/10/29 00:41:25;;;;;;;4.27;1.47;;;11.80;89.30;;;;;;5031768;28;20588;-85
2023/10/29 00:43:52;;;;;;;4.57;1.52;;;11.90;89.40;;;;;;5032081;28;20352;-85
2023/10/29 00:46:19;;;;;;;4.70;1.70;;;11.90;89.50;;;;;;5032607;28;20055;-85
2023/10/29 00:48:48;;;;;;;3.55;1.45;;;11.90;89.50;;;;;;5032042;28;20565;-85
2023/10/29 00:51:15;;;;;;;3.60;1.33;;;11.90;89.60;;;;;;5032343;28;20516;-85
2023/10/29 00:53:42;;;;;;;3.43;1.53;;;11.90;89.60;;;;;;5048448;28;20574;-84
2023/10/29 00:56:09;;;;;;;4.30;1.30;;;11.90;89.70;;;;;;5015355;28;20261;-84
2023/10/29 00:58:37;;;;;;;3.47;1.02;;;11.90;89.70;;;;;;5031686;28;20682;-85
2023/10/29 01:01:04;;;;;;;3.60;1.20;;;11.90;90.10;;;;;;5032160;28;20440;-84
2023/10/29 01:03:31;;;;;;;3.83;1.50;;;11.90;90.00;;;;;;5030859;28;20062;-85
2023/10/29 01:06:00;;;;;;;3.83;1.57;;;12.00;90.20;;;;;;5031814;28;20096;-85
2023/10/29 01:08:27;;;;;;;5.50;1.40;;;12.00;90.10;;;;;;5031951;28;20272;-84
2023/10/29 01:10:55;;;;;;;4.15;1.45;;;12.00;90.30;;;;;;5015025;28;20133;-84
2023/10/29 01:13:22;;;;;;;3.17;1.45;;;12.00;90.30;;;;;;5015145;28;20080;-84
2023/10/29 01:15:49;;;;;;;3.45;1.50;;;12.00;90.30;;;;;;5031673;28;20196;-84
2023/10/29 01:18:15;;;;;;;3.63;1.60;;;12.00;90.30;;;;;;5031337;28;20045;-85
2023/10/29 01:20:43;;;;;;;4.88;1.98;;;12.10;90.40;;;;;;5031454;28;20307;-85
2023/10/29 01:23:12;;;;;;;4.68;2.00;;;12.10;90.30;;;;;;5014959;28;20522;-84
2023/10/29 01:25:39;;;;;;;3.80;1.60;;;12.10;90.40;;;;;;5014852;28;20103;-84
2023/10/29 01:28:07;;;;;;;4.53;1.88;;;12.10;90.50;;;;;;5047341;28;20088;-84
2023/10/29 01:30:33;;;;;;;6.00;2.10;;;12.10;90.50;;;;;;5014874;28;20050;-84
2023/10/29 01:33:00;;;;;;;4.43;2.50;;;12.20;90.80;;;;;;5014757;28;20280;-84
2023/10/29 01:35:27;;;;;;;3.50;2.10;;;12.20;91.00;;;;;;5014596;28;20526;-84
2023/10/29 01:37:55;;;;;;;4.47;1.88;;;12.30;90.90;;;;;;5031267;28;20061;-84
2023/10/29 01:40:24;;;;;;;4.93;2.30;;;12.30;90.80;;;;;;5015003;28;20057;-85
2023/10/29 01:42:50;;;;;;;4.53;1.97;;;12.30;90.80;;;;;;5014633;28;20458;-84
2023/10/29 01:45:17;;;;;;;4.15;1.77;;;12.30;90.80;;;;;;5014636;28;20304;-85
2023/10/29 01:47:44;;;;;;;3.70;1.77;;;12.30;90.80;;;;;;5014397;28;20602;-84
2023/10/29 01:50:12;;;;;;;3.70;1.45;;;12.30;90.90;;;;;;5014732;28;20643;-85
2023/10/29 01:52:39;;;;;;;4.47;1.55;;;12.30;90.90;;;;;;5030881;28;20060;-84
2023/10/29 01:55:07;;;;;;;3.97;1.60;;;12.30;90.80;;;;;;5014969;28;20131;-84
2023/10/29 01:57:36;;;;;;;4.70;1.58;;;12.30;90.90;;;;;;5031025;28;20339;-85
2023/10/29 02:00:05;;;;;;;3.85;1.60;;;12.40;91.00;;;;;;5047355;28;20595;-84
2023/10/29 02:02:38;;;;;;;4.22;1.30;;;12.40;90.90;;;;;;5030860;28;20530;-85
2023/10/29 02:05:06;;;;;;;4.22;1.55;;;12.50;91.00;;;;;;5014202;28;20119;-84
2023/10/29 02:07:34;;;;;;;4.80;1.40;;;12.50;91.00;;;;;;5014519;28;20053;-84
2023/10/29 02:10:01;;;;;;;3.88;1.25;;;12.50;90.90;;;;;;5014150;28;20290;-85
2023/10/29 02:12:28;;;;;;;3.40;1.40;;;12.50;91.00;;;;;;5014266;28;20057;-84
2023/10/29 02:14:56;;;;;;;4.28;1.42;;;12.50;90.90;;;;;;5014134;28;20132;-85
2023/10/29 02:17:25;;;;;;;4.72;1.30;;;12.50;90.90;;;;;;5013933;28;21115;-85
2023/10/29 02:19:52;;;;;;;4.00;1.30;;;12.50;90.80;;;;;;5013976;28;20050;-85
2023/10/29 02:22:21;;;;;;;3.70;1.00;;;12.50;90.90;;;;;;5013751;28;20841;-85
2023/10/29 02:24:48;;;;;;;3.35;1.00;;;12.50;90.90;;;;;;5030781;28;20119;-84
2023/10/29 02:27:15;;;;;;;3.45;1.20;;;12.50;90.80;;;;;;5013946;28;20144;-84
2023/10/29 02:29:41;;;;;;;6.35;1.48;;;12.50;90.70;;;;;;5013788;28;20728;-84
2023/10/29 02:32:08;;;;;;;3.20;1.10;;;12.50;90.60;;;;;;5013766;28;20056;-84
2023/10/29 02:34:36;;;;;;;4.10;1.25;;;12.60;90.60;;;;;;5014041;28;20273;-84
2023/10/29 02:37:03;;;;;;;3.78;0.98;;;12.50;90.50;;;;;;5013609;28;20136;-85
2023/10/29 02:39:32;;;;;;;4.20;0.80;;;12.50;90.40;;;;;;5013547;28;20080;-85
2023/10/29 02:42:00;;;;;;;4.03;1.30;;;12.50;90.40;;;;;;5013186;28;20053;-85
2023/10/29 02:44:27;;;;;;;4.10;0.67;;;12.50;90.50;;;;;;5013584;28;20172;-85
2023/10/29 02:46:55;;;;;;;4.88;1.00;;;12.60;90.40;;;;;;5013577;28;20257;-85
2023/10/29 02:49:22;;;;;;;3.78;0.90;;;12.70;90.30;;;;;;5013480;28;20136;-85
2023/10/29 02:51:48;;;;;;;3.65;1.02;;;12.60;90.30;;;;;;5013732;28;20137;-84
2023/10/29 02:54:15;;;;;;;3.80;0.95;;;12.70;90.20;;;;;;5013178;28;20054;-85
2023/10/29 02:56:44;;;;;;;4.47;1.10;;;12.70;90.10;;;;;;5013320;28;20073;-85
2023/10/29 02:59:11;;;;;;;3.63;1.00;;;12.70;90.00;;;;;;5046265;28;20287;-85
2023/10/29 03:01:38;;;;;;;4.15;1.00;;;12.70;90.00;;;;;;5013280;28;20143;-85
2023/10/29 03:04:05;;;;;;;3.70;1.00;;;12.70;90.00;;;;;;5013119;28;20136;-85
2023/10/29 03:06:33;;;;;;;3.60;0.90;;;12.70;89.90;;;;;;5013469;28;20056;-85
2023/10/29 03:08:59;;;;;;;3.17;0.77;;;12.70;90.00;;;;;;5013488;28;20454;-86
2023/10/29 03:11:27;;;;;;;3.60;0.70;;;12.80;89.90;;;;;;5029870;28;20395;-85
2023/10/29 03:13:55;;;;;;;4.03;0.90;;;12.80;89.80;;;;;;5013079;28;20515;-86
2023/10/29 03:16:22;;;;;;;5.78;1.20;;;12.80;89.80;;;;;;5013576;28;20050;-84
2023/10/29 03:18:49;;;;;;;4.18;1.10;;;12.80;89.70;;;;;;5012829;28;20145;-84
2023/10/29 03:21:17;;;;;;;4.27;0.97;;;12.80;89.60;;;;;;5013669;28;20149;-84
2023/10/29 03:23:44;;;;;;;4.72;1.15;;;12.90;89.40;;;;;;5013283;28;20261;-84
2023/10/29 03:26:12;;;;;;;3.88;0.80;;;12.90;89.20;;;;;;5014510;28;20561;-85
2023/10/29 03:28:41;;;;;;;3.40;0.75;;;12.90;89.00;;;;;;5016354;28;20050;-86
2023/10/29 03:31:14;;;;;;;3.25;0.70;;;13.00;88.90;;;;;;5033406;28;20515;-85
2023/10/29 03:33:41;;;;;;;4.37;0.80;;;12.90;89.00;;;;;;5016657;28;20163;-85
2023/10/29 03:36:09;;;;;;;2.38;0.60;;;13.00;89.00;;;;;;5033105;28;20820;-85
2023/10/29 03:38:36;;;;;;;3.22;0.57;;;13.00;88.70;;;;;;5015986;28;20061;-85
2023/10/29 03:41:03;;;;;;;4.22;0.80;;;13.00;88.60;;;;;;5016854;28;20136;-85
2023/10/29 03:43:30;;;;;;;3.25;0.80;;;13.10;88.40;;;;;;5016164;28;20415;-85
2023/10/29 03:45:59;;;;;;;3.37;0.87;;;13.10;88.30;;;;;;5016359;28;20050;-85
2023/10/29 03:48:27;;;;;;;3.05;0.73;;;13.10;88.30;;;;;;5016358;28;20910;-85
2023/10/29 03:50:55;;;;;;;4.20;0.80;;;13.10;88.20;;;;;;5016188;28;20492;-85
2023/10/29 03:53:21;;;;;;;2.80;0.60;;;13.10;88.00;;;;;;5032765;28;20073;-85
2023/10/29 03:55:50;;;;;;;3.22;0.60;;;13.10;87.90;;;;;;5032736;28;20050;-85
2023/10/29 03:58:17;;;;;;;3.07;0.80;;;13.10;87.80;;;;;;5032980;28;20096;-85
2023/10/29 04:00:50;;;;;;;3.65;0.60;;;13.20;87.70;;;;;;5032451;28;20367;-85
2023/10/29 04:03:18;;;;;;;2.80;0.60;;;13.20;87.70;;;;;;5016059;28;20076;-85
2023/10/29 04:05:46;;;;;;;2.85;0.57;;;13.20;87.70;;;;;;5015988;28;20097;-84
2023/10/29 04:08:13;;;;;;;3.38;0.82;;;13.30;87.60;;;;;;5015792;28;20165;-85
2023/10/29 04:10:40;;;;;;;3.30;0.80;;;13.30;87.40;;;;;;5016357;28;20052;-85
2023/10/29 04:13:07;;;;;;;2.20;0.47;;;13.30;87.30;;;;;;5016292;28;20327;-85
2023/10/29 04:15:34;;;;;;;2.22;0.57;;;13.30;87.20;;;;;;5015864;28;20523;-85
2023/10/29 04:18:01;;;;;;;3.47;0.70;;;13.30;87.20;;;;;;5015516;28;20049;-85
2023/10/29 04:20:28;;;;;;;3.30;0.70;;;13.30;87.20;;;;;;5015390;28;20512;-85
2023/10/29 04:22:56;;;;;;;3.23;0.53;;;13.30;87.20;;;;;;5031995;28;20669;-85
2023/10/29 04:25:23;;;;;;;3.95;0.70;;;13.30;87.20;;;;;;5049012;28;20881;-86
2023/10/29 04:27:50;;;;;;;3.92;0.70;;;13.30;87.10;;;;;;5032165;28;20058;-85
2023/10/29 04:30:17;;;;;;;2.58;0.50;;;13.30;86.60;;;;;;5015607;28;20057;-85
2023/10/29 04:32:44;;;;;;;2.65;0.50;;;13.40;86.60;;;;;;5048690;28;20100;-85
2023/10/29 04:35:11;;;;;;;3.30;0.60;;;13.40;86.50;;;;;;5032112;28;20045;-85
2023/10/29 04:37:38;;;;;;;3.38;0.50;;;13.40;86.30;;;;;;5015583;28;20255;-86
2023/10/29 04:40:08;;;;;;;3.28;0.68;;;13.50;85.80;;;;;;5031511;28;20045;-85
2023/10/29 04:42:35;;;;;;;3.33;0.40;;;13.50;85.50;;;;;;5032078;28;20053;-86
2023/10/29 04:45:03;;;;;;;4.22;0.90;;;13.50;85.30;;;;;;5015312;28;20136;-85
2023/10/29 04:47:30;;;;;;;4.10;0.70;;;13.50;85.30;;;;;;5015019;28;20085;-85
2023/10/29 04:49:57;;;;;;;3.05;0.50;;;13.50;85.00;;;;;;5032137;28;20292;-86
2023/10/29 04:52:24;;;;;;;3.60;0.50;;;13.50;85.00;;;;;;5015240;28;20591;-86
2023/10/29 04:54:51;;;;;;;2.33;0.30;;;13.50;84.50;;;;;;5015414;28;20053;-86
2023/10/29 04:57:21;;;;;;;2.22;0.22;;;13.50;82.90;;;;;;5031755;28;20516;-86
2023/10/29 04:59:48;;;;;;;3.07;0.60;;;13.50;82.30;;;;;;5048213;28;20056;-86
2023/10/29 05:02:15;;;;;;;3.47;0.47;;;13.50;82.50;;;;;;5015402;28;20257;-86
2023/10/29 05:04:42;;;;;;;2.80;0.60;;;13.40;82.90;;;;;;5015485;28;20053;-86
2023/10/29 05:07:09;;;;;;;3.70;0.60;;;13.40;83.40;;;;;;5015295;28;20132;-86
2023/10/29 05:09:36;;;;;;;3.67;0.55;;;13.50;83.70;;;;;;5014971;28;20137;-86
2023/10/29 05:12:04;;;;;;;2.80;0.50;;;13.50;83.90;;;;;;5048499;28;20226;-86
2023/10/29 05:14:32;;;;;;;3.15;0.30;;;13.50;83.90;;;;;;5031307;28;21235;-86
2023/10/29 05:16:59;;;;;;;3.03;0.60;;;13.50;83.70;;;;;;5031232;28;20637;-85
2023/10/29 05:19:26;;;;;;;3.25;0.57;;;13.60;83.20;;;;;;5047513;28;20166;-86
2023/10/29 05:21:53;;;;;;;4.40;0.50;;;13.60;82.80;;;;;;5031152;28;20500;-86
2023/10/29 05:24:21;;;;;;;4.03;0.53;;;13.60;82.90;;;;;;5014733;28;20518;-86
2023/10/29 05:26:48;;;;;;;2.90;0.38;;;13.60;82.70;;;;;;5031286;28;20265;-86
2023/10/29 05:29:16;;;;;;;2.42;0.30;;;13.70;82.60;;;;;;5014839;28;20508;-86
2023/10/29 05:31:44;;;;;;;2.10;0.40;;;13.70;82.50;;;;;;5030938;28;20507;-86
2023/10/29 05:34:11;;;;;;;4.70;0.60;;;13.70;82.30;;;;;;5031255;28;20096;-86
2023/10/29 05:36:38;;;;;;;5.17;0.63;;;13.70;82.30;;;;;;5014750;28;20171;-86
2023/10/29 05:39:07;;;;;;;2.00;0.30;;;13.70;82.20;;;;;;5014487;28;20299;-86
2023/10/29 05:41:33;;;;;;;3.90;0.55;;;13.70;82.40;;;;;;5014294;28;20053;-86
2023/10/29 05:44:00;;;;;;;3.40;0.57;;;13.70;82.40;;;;;;5014473;28;20085;-86
2023/10/29 05:46:28;;;;;;;3.40;0.43;;;13.70;82.30;;;;;;5030787;28;20053;-86
2023/10/29 05:48:56;;;;;;;3.53;0.43;;;13.70;82.20;;;;;;5014457;28;20123;-86
2023/10/29 05:51:23;;;;;;;3.38;0.63;;;13.70;82.10;;;;;;5014195;28;20391;-86
2023/10/29 05:53:50;;;;;;;3.17;0.40;;;13.70;82.10;;;;;;5014269;28;20144;-86
2023/10/29 05:56:18;;;;;;;3.40;0.40;;;13.70;82.20;;;;;;5030380;28;20049;-86
2023/10/29 05:58:45;;;;;;;2.85;0.40;;;13.70;81.90;;;;;;5030529;28;20061;-85
2023/10/29 06:01:12;;;;;;;2.87;0.33;;;13.70;81.70;;;;;;5030879;28;20056;-86
2023/10/29 06:03:39;;;;;;;2.60;0.50;;;13.70;81.80;;;;;;5014202;28;20378;-86
2023/10/29 06:06:07;;;;;;;2.22;0.45;;;13.70;81.80;;;;;;5013985;28;20593;-86
2023/10/29 06:08:34;;;;;;;4.85;0.50;;;13.70;80.80;;;;;;5030019;28;20135;-86
2023/10/29 06:11:01;;;;;;;3.60;0.45;;;13.80;80.90;;;;;;5030435;28;20053;-86
2023/10/29 06:13:28;;;;;;;2.43;0.40;;;13.80;81.00;;;;;;5030790;28;20077;-86
2023/10/29 06:15:55;;;;;;;3.00;0.30;;;13.70;81.30;;;;;;5030505;28;20335;-87
2023/10/29 06:18:22;;;;;;;2.53;0.30;;;13.70;81.40;;;;;;5046411;28;20128;-86
2023/10/29 06:20:49;;;;;;;2.58;0.40;;;13.80;80.90;;;;;;5030189;28;21072;-86
2023/10/29 06:23:17;;;;;;;3.17;0.55;;;13.80;81.00;;;;;;5013576;28;20147;-86
2023/10/29 06:25:44;;;;;;;3.03;0.30;;;13.70;81.20;;;;;;5030647;28;20050;-87
2023/10/29 06:28:11;;;;;;;3.05;0.30;;;13.70;81.00;;;;;;5029737;28;20272;-86
2023/10/29 06:30:38;;;;;;;2.58;0.25;;;13.80;80.50;;;;;;5030010;28;20053;-86
2023/10/29 06:33:05;;;;;;;4.05;0.60;;;13.80;80.60;;;;;;5030100;28;20870;-86
2023/10/29 06:35:32;;;;;;;2.65;0.32;;;13.90;80.60;;;;;;5013829;28;20073;-87
2023/10/29 06:37:59;;;;;;;2.37;0.30;;;13.90;80.70;;;;;;5013663;28;20085;-86
2023/10/29 06:40:27;;;;;;;4.38;0.40;;;13.90;80.70;;;;;;5030087;28;20809;-87
2023/10/29 06:42:54;;;;;;;3.03;0.43;;;13.80;80.60;;;;;;5013783;28;20502;-87
2023/10/29 06:45:21;;;;;;;3.22;0.40;;;13.90;80.30;;;;;;5029741;28;20041;-86
2023/10/29 06:47:48;;;;;;;4.22;0.50;;;13.90;79.90;;;;;;5013487;28;20166;-86
2023/10/29 06:50:15;;;;;;;3.00;0.63;;;13.90;79.50;;;;;;5029541;28;20614;-86
2023/10/29 06:52:42;;;;;;;3.20;0.40;;;13.90;79.30;;;;;;5029919;28;20304;-86
2023/10/29 06:55:09;;;;;;;4.15;0.50;;;13.90;79.20;;;;;;5013336;28;20666;-86
2023/10/29 06:57:38;;;;;;;3.13;0.40;;;13.90;78.90;;;;;;5013095;28;20057;-86
2023/10/29 07:00:07;;;;;;;4.10;0.43;;;13.90;78.70;;;;;;5029563;28;20079;-86
2023/10/29 07:02:35;;;;;;;4.20;0.70;;;13.80;78.60;;;;;;5031189;28;20049;-86
2023/10/29 07:05:02;;;;;;;3.45;0.43;;;13.90;78.10;;;;;;5016561;28;20256;-86
2023/10/29 07:07:29;;;;;;;2.40;0.30;;;13.80;78.10;;;;;;5033631;28;20045;-86
2023/10/29 07:09:57;;;;;;;3.10;0.40;;;13.70;78.20;;;;;;5017139;28;20049;-86
2023/10/29 07:12:23;;;;;;;3.50;0.30;;;13.70;77.60;;;;;;5016994;28;20128;-86
2023/10/29 07:14:52;;;;;;;3.73;0.50;;;13.70;77.60;;;;;;5016730;28;20132;-86
2023/10/29 07:17:19;;;;;;;3.58;0.45;;;13.70;77.40;;;;;;5016707;28;20348;-87
2023/10/29 07:19:47;;;;;;;4.30;0.50;;;13.70;77.40;;;;;;5033201;28;20077;-86
2023/10/29 07:22:14;;;;;;;3.13;0.40;;;13.60;77.50;;;;;;5033390;28;20053;-86
2023/10/29 07:24:41;;;;;;;4.40;0.68;;;13.60;77.70;;;;;;5016811;28;20050;-86
2023/10/29 07:27:08;;;;;;;2.77;0.40;;;13.60;77.50;;;;;;5016257;28;20136;-87
2023/10/29 07:29:36;;;;;;;5.00;0.50;;;13.60;77.60;;;;;;5016582;28;20248;-86
2023/10/29 07:32:04;;;;;;;5.00;0.80;;;13.60;77.30;;;;;;5033240;28;20054;-87
2023/10/29 07:34:31;;;;;;;3.70;0.50;;;13.70;77.00;;;;;;5016743;28;20073;-87
2023/10/29 07:36:58;;;;;;;4.30;0.43;;;13.60;77.00;;;;;;5051285;28;20081;-87
2023/10/29 07:39:25;;;;;;;3.47;0.37;;;13.70;76.30;;;;;;5033173;28;20562;-87
2023/10/29 07:41:52;;;;;;;3.72;0.40;;;13.70;76.50;;;;;;5016374;28;20786;-87
2023/10/29 07:44:19;;;;;;;2.65;0.60;;;13.70;76.20;;;;;;5016048;28;20141;-87
2023/10/29 07:46:47;;;;;;;4.57;0.40;;;13.70;76.40;;;;;;5016618;28;20061;-87
2023/10/29 07:49:15;;;;;;;3.88;0.75;;;13.70;76.50;;;;;;5016269;28;20055;-87
2023/10/29 07:51:43;;;;;;;4.33;0.60;;;13.70;76.40;;;;;;5016809;28;20049;-86
2023/10/29 07:54:10;;;;;;;5.00;0.93;;;13.70;76.20;;;;;;5032636;28;20273;-86
2023/10/29 07:56:37;;;;;;;3.03;0.57;;;13.70;76.10;;;;;;5049283;28;20488;-87
2023/10/29 07:59:04;;;;;;;4.45;0.57;;;13.70;75.60;;;;;;5015707;28;20530;-87
2023/10/29 08:01:31;;;;;;;4.00;0.50;;;13.70;75.90;;;;;;5049513;28;20956;-87
2023/10/29 08:03:58;;;;;;;3.53;0.43;;;13.70;76.20;;;;;;5032348;28;20558;-87
2023/10/29 08:06:26;;;;;;;3.30;0.77;;;13.70;76.50;;;;;;5016156;28;20391;-87
2023/10/29 08:08:53;;;;;;;5.57;0.57;;;13.60;76.30;;;;;;5032625;28;20061;-87
2023/10/29 08:11:21;;;;;;;2.97;0.40;;;13.70;76.20;;;;;;5015883;28;20056;-87
2023/10/29 08:13:50;;;;;;;2.58;0.30;;;13.70;75.90;;;;;;5015599;28;20606;-87
2023/10/29 08:16:18;;;;;;;4.23;0.60;;;13.70;75.90;;;;;;5016498;28;20057;-87
2023/10/29 08:18:45;;;;;;;5.90;0.60;;;13.70;75.80;;;;;;5032347;28;20344;-87
2023/10/29 08:21:12;;;;;;;5.57;0.63;;;13.70;75.20;;;;;;5016001;28;20204;-86
2023/10/29 08:23:40;;;;;;;3.63;0.45;;;13.70;75.00;;;;;;5032599;28;20136;-87
2023/10/29 08:26:07;;;;;;;3.53;0.50;;;13.80;75.30;;;;;;5015884;28;20113;-87
2023/10/29 08:28:36;;;;;;;4.20;0.57;;;13.70;75.70;;;;;;5015183;28;20053;-87
2023/10/29 08:31:04;;;;;;;3.25;0.40;;;13.70;75.80;;;;;;5016042;28;20850;-87
2023/10/29 08:33:31;;;;;;;3.65;0.35;;;13.70;75.70;;;;;;5015605;28;20049;-87
2023/10/29 08:35:58;;;;;;;3.35;0.57;;;13.70;76.20;;;;;;5015780;28;20096;-87
2023/10/29 08:38:25;;;;;;;4.43;0.55;;;13.70;76.30;;;;;;5032070;28;20049;-87
2023/10/29 08:40:53;;;;;;;4.33;0.57;;;13.70;76.50;;;;;;5031673;28;20049;-87
2023/10/29 08:43:20;;;;;;;4.32;0.60;;;13.70;76.10;;;;;;5031817;28;20352;-86
2023/10/29 08:45:47;;;;;;;4.03;0.32;;;13.70;75.80;;;;;;5031994;28;20073;-87
2023/10/29 08:48:14;;;;;;;4.18;0.45;;;13.80;75.90;;;;;;5015280;28;20084;-87
2023/10/29 08:50:42;;;;;;;4.28;0.52;;;13.90;75.00;;;;;;5031410;28;20508;-87
2023/10/29 08:53:09;;;;;;;4.33;0.40;;;13.90;74.70;;;;;;5031715;28;20042;-87
2023/10/29 08:55:36;;;;;;;3.25;0.50;;;13.90;75.20;;;;;;5015270;28;20404;-87
2023/10/29 08:58:05;;;;;;;4.25;0.40;;;13.90;75.30;;;;;;5032114;28;20519;-87
2023/10/29 09:00:32;;;;;;;3.53;0.43;;;13.90;75.20;;;;;;5014798;28;20496;-87
2023/10/29 09:02:59;;;;;;;5.22;0.50;;;13.90;74.70;;;;;;5031571;28;20052;-87
2023/10/29 09:05:27;;;;;;;4.20;0.50;;;13.90;74.80;;;;;;5031476;28;20178;-87
2023/10/29 09:07:54;;;;;;;4.68;0.50;;;13.90;75.10;;;;;;5031504;28;20257;-87
2023/10/29 09:10:22;;;;;;;4.35;0.52;;;13.90;75.40;;;;;;5030915;28;20050;-86
2023/10/29 09:12:49;;;;;;;4.78;0.70;;;14.00;74.80;;;;;;5015034;28;20116;-86
2023/10/29 09:15:18;;;;;;;6.10;0.70;;;14.00;75.00;;;;;;5014892;28;20103;-86
2023/10/29 09:17:45;;;;;;;4.73;0.63;;;14.00;75.20;;;;;;5031523;28;20502;-86
2023/10/29 09:20:13;;;;;;;7.88;0.80;;;14.00;74.70;;;;;;5031480;28;20893;-87
2023/10/29 09:22:40;;;;;;;4.15;0.68;;;14.10;74.10;;;;;;5014459;28;20042;-87
2023/10/29 09:25:09;;;;;;;6.53;0.68;;;14.10;74.60;;;;;;5013605;28;20096;-87
2023/10/29 09:27:36;;;;;;;5.00;0.80;;;14.10;75.00;;;;;;5030664;28;20060;-87
2023/10/29 09:30:03;;;;;;;4.67;0.70;;;14.10;75.10;;;;;;5031178;28;20159;-87
2023/10/29 09:32:34;;;;;;;5.78;0.75;;;14.10;75.30;;;;;;5047568;28;20698;-87
2023/10/29 09:35:04;;;;;;;4.57;0.90;;;14.10;75.90;;;;;;5030940;28;20066;-86
2023/10/29 09:37:32;;;;;;;5.80;0.80;;;14.10;75.90;;;;;;5014836;28;20562;-87
2023/10/29 09:39:59;;;;;;;6.63;0.73;;;14.20;75.60;;;;;;5014968;28;20168;-87
2023/10/29 09:42:29;;;;;;;5.50;0.73;;;14.20;76.00;;;;;;5031080;28;20081;-87
2023/10/29 09:45:00;;;;;;;6.20;0.80;;;14.30;76.00;;;;;;5014310;28;20281;-86
2023/10/29 09:47:28;;;;;;;5.57;0.80;;;14.40;74.90;;;;;;5014374;28;20053;-86
2023/10/29 09:49:57;;;;;;;4.25;0.70;;;14.40;74.90;;;;;;5030688;28;20216;-86
2023/10/29 09:52:28;;;;;;;6.00;1.02;;;14.40;75.40;;;;;;5014495;28;20188;-85
2023/10/29 09:54:58;;;;;;;4.60;0.93;;;14.40;74.30;;;;;;5014450;28;20045;-86
2023/10/29 09:57:25;;;;;;;5.40;0.90;;;14.40;74.30;;;;;;5014464;28;20746;-87
2023/10/29 09:59:52;;;;;;;5.30;1.00;;;14.50;73.80;;;;;;5014132;28;20073;-86
2023/10/29 10:02:19;;;;;;;4.68;0.82;;;14.50;73.90;;;;;;5030637;28;20439;-87
2023/10/29 10:04:48;;;;;;;5.63;0.93;;;14.50;74.10;;;;;;5030659;28;20492;-87
2023/10/29 10:07:17;;;;;;;5.47;0.90;;;14.50;73.80;;;;;;5014255;28;20639;-87
2023/10/29 10:09:51;;;;;;;6.43;1.30;;;14.50;73.90;;;;;;5031030;28;20334;-87
2023/10/29 10:12:18;;;;;;;7.28;0.93;;;14.50;73.00;;;;;;5014131;28;20068;-87
2023/10/29 10:14:46;;;;;;;6.20;1.15;;;14.50;72.90;;;;;;5030717;28;20128;-86
2023/10/29 10:17:14;;;;;;;6.63;1.10;;;14.50;73.00;;;;;;5030810;28;20516;-86
2023/10/29 10:19:41;;;;;;;7.63;1.03;;;14.40;72.90;;;;;;5030398;28;20049;-87
2023/10/29 10:22:09;;;;;;;5.43;1.05;;;14.40;73.00;;;;;;5030653;28;20285;-86
2023/10/29 10:24:43;;;;;;;7.63;1.15;;;14.40;72.90;;;;;;5046825;28;20049;-87
2023/10/29 10:27:11;;;;;;;5.50;0.90;;;14.40;72.70;;;;;;5030353;28;20076;-87
2023/10/29 10:29:38;;;;;;;5.30;0.98;;;14.40;72.70;;;;;;5046914;28;20088;-87
2023/10/29 10:32:06;;;;;;;4.83;0.90;;;14.40;72.90;;;;;;5013769;28;20042;-88
2023/10/29 10:34:37;;;;;;;8.23;1.20;;;14.40;72.70;;;;;;5030506;28;20311;-87
2023/10/29 10:37:04;;;;;;;6.63;0.90;;;14.40;72.20;;;;;;5013668;28;20167;-87
2023/10/29 10:39:32;;;;;;;5.90;1.33;;;14.40;71.60;;;;;;5013451;28;20053;-87
2023/10/29 10:42:03;;;;;;;3.85;0.80;;;14.40;71.50;;;;;;5014185;28;20515;-86
2023/10/29 10:44:31;;;;;;;7.07;1.00;;;14.30;72.00;;;;;;5030241;28;20057;-86
2023/10/29 10:46:59;;;;;;;8.73;0.90;;;14.30;72.10;;;;;;5013541;28;20320;-86
2023/10/29 10:49:31;;;;;;;6.53;1.10;;;14.30;72.80;;;;;;5013571;28;20084;-87
2023/10/29 10:52:01;;;;;;;6.43;0.93;;;14.30;72.60;;;;;;5046853;28;20488;-87
2023/10/29 10:54:29;;;;;;;9.88;1.30;;;14.30;72.70;;;;;;5013412;28;20054;-86
2023/10/29 10:56:57;;;;;;;4.77;0.80;;;14.30;72.70;;;;;;5013819;28;20061;-87
2023/10/29 10:59:25;;;;;;;6.55;1.00;;;14.40;72.90;;;;;;5029913;28;20264;-87
2023/10/29 11:01:52;;;;;;;5.53;1.17;;;14.30;72.90;;;;;;5046283;28;20050;-87
2023/10/29 11:04:19;;;;;;;9.98;1.33;;;14.40;72.60;;;;;;5012958;28;20177;-86
2023/10/29 11:06:46;;;;;;;9.43;1.30;;;14.40;72.50;;;;;;5029992;28;20064;-87
2023/10/29 11:09:17;;;;;;;7.63;1.13;;;14.40;72.20;;;;;;5013405;28;20057;-87
2023/10/29 11:11:47;;;;;;;6.32;0.80;;;14.40;72.60;;;;;;5029803;28;20263;-87
2023/10/29 11:14:16;;;;;;;8.82;1.27;;;14.30;72.70;;;;;;5046350;28;20053;-87
2023/10/29 11:16:49;;;;;;;7.22;0.80;;;14.40;72.70;;;;;;5013523;28;20659;-86
2023/10/29 11:19:45;;;;;;;8.10;1.13;;;14.40;72.60;;;;;;5013464;28;20117;-87
2023/10/29 11:22:20;;;;;;;7.60;1.30;;;14.40;72.10;;;;;;5029706;28;20053;-87
2023/10/29 11:25:20;;;;;;;4.93;0.80;;;14.50;71.60;;;;;;5029481;28;20354;-86
2023/10/29 11:27:49;;;;;;;5.85;1.08;;;14.50;71.50;;;;;;5013565;28;20061;-86
2023/10/29 11:30:17;;;;;;;7.70;0.85;;;14.60;71.50;;;;;;5029562;28;20053;-86
2023/10/29 11:32:47;;;;;;;5.05;0.70;;;14.70;69.90;;;;;;5013149;28;20491;-87
2023/10/29 11:35:19;;;;;;;6.73;0.63;;;14.70;69.50;;;;;;5045913;28;20149;-87
2023/10/29 11:37:46;;;;;;;6.65;0.88;;;14.70;69.80;;;;;;5029401;28;20259;-87
2023/10/29 11:40:34;;;;;;;5.18;0.80;;;14.70;70.40;;;;;;5029535;28;20136;-86
2023/10/29 11:43:17;;;;;;;5.85;1.00;;;14.70;69.70;;;;;;5013140;28;20409;-87
2023/10/29 11:45:58;;;;;;;6.78;0.98;;;14.80;69.20;;;;;;5029527;28;20055;-87
2023/10/29 11:48:28;;;;;;;6.40;0.87;;;14.70;69.40;;;;;;5013668;28;20057;-87
2023/10/29 11:51:21;;;;;;;6.97;0.60;;;14.70;69.10;;;;;;5016115;28;20268;-87
2023/10/29 11:53:49;;;;;;;4.28;0.60;;;14.70;69.30;;;;;;5032621;28;20053;-86
2023/10/29 11:56:18;;;;;;;6.68;0.55;;;14.70;67.70;;;;;;5032499;28;20152;-87
2023/10/29 11:58:45;;;;;;;5.13;0.75;;;14.70;67.80;;;;;;5049282;28;20168;-87
2023/10/29 12:01:19;;;;;;;8.07;0.80;;;14.70;68.00;;;;;;5032659;28;20163;-87
2023/10/29 12:03:53;;;;;;;7.78;0.60;;;14.60;68.50;;;;;;5016166;28;20755;-87
2023/10/29 12:06:21;;;;;;;6.80;0.60;;;14.60;68.60;;;;;;5032537;28;20061;-87
2023/10/29 12:08:48;;;;;;;7.55;0.80;;;14.60;68.40;;;;;;5016033;28;20099;-87
2023/10/29 12:11:15;;;;;;;6.45;0.88;;;14.50;68.70;;;;;;5032541;28;20068;-87
2023/10/29 12:13:43;;;;;;;5.93;0.63;;;14.50;69.00;;;;;;5032597;28;20061;-87
2023/10/29 12:16:12;;;;;;;4.00;0.60;;;14.50;69.40;;;;;;5015541;28;20342;-87
2023/10/29 12:18:40;;;;;;;7.47;0.80;;;14.50;69.80;;;;;;5032813;28;20414;-87
2023/10/29 12:21:10;;;;;;;6.55;0.80;;;14.50;69.00;;;;;;5015888;28;20630;-87
2023/10/29 12:23:38;;;;;;;8.05;0.70;;;14.50;69.10;;;;;;5015574;28;20500;-86
2023/10/29 12:26:08;;;;;;;6.60;0.87;;;14.50;69.10;;;;;;5015774;28;20577;-87
2023/10/29 12:28:36;;;;;;;6.30;0.80;;;14.50;69.00;;;;;;5032380;28;20260;-86
2023/10/29 12:31:03;;;;;;;5.63;0.85;;;14.50;68.50;;;;;;5048710;28;20066;-87
2023/10/29 12:33:33;;;;;;;6.68;0.90;;;14.50;68.40;;;;;;5049056;28;20160;-87
2023/10/29 12:36:03;;;;;;;6.97;1.17;;;14.50;68.40;;;;;;5015639;28;20060;-87
2023/10/29 12:38:31;;;;;;;4.57;0.60;;;14.50;67.60;;;;;;5032616;28;20140;-87
2023/10/29 12:41:11;;;;;;;6.45;0.52;;;14.40;68.10;;;;;;5015629;28;20276;-86
2023/10/29 12:43:40;;;;;;;5.45;0.82;;;14.40;67.90;;;;;;5032222;28;20504;-87
2023/10/29 12:46:09;;;;;;;5.38;0.60;;;14.40;67.70;;;;;;5015299;28;20164;-87
2023/10/29 12:48:55;;;;;;;5.57;0.93;;;14.40;67.40;;;;;;5015539;28;20053;-87
2023/10/29 12:51:27;;;;;;;6.63;0.73;;;14.40;67.70;;;;;;5032101;28;20648;-87
2023/10/29 12:54:11;;;;;;;7.55;1.02;;;14.40;67.20;;;;;;5015638;28;20285;-87